ダラス/フォートワース の空港の天気 - METARとTAF

ダラス・フォートワース国際空港 ( KDFW / DFW ) - アメリカ テキサス州ダラス & フォートワース
飛行場実況気象(Metar)
観測時間04/26 05:53 CDT (04/26 10:53 UTC)
風向・風速西北西 4m/s
視程10km以上
天気現象
なし
気温8.3℃
湿度90%
気圧1016hPa
METARKDFW 261053Z 29007KT 10SM CLR 08/07 A3001 RMK AO2 SLP160 T00830067
過去の天気等 Google飛行場航空写真 Wunderground天気予報

過去48時間のMETAR

飛行場予報(TAF)
発表時間: 4/26 04:05 CDT (4/26 09:05 UTC)
予報対象時間: 26日4時 CDT ~ 27日7時 CDT
風向・風速西 3m/s
視程10km以上
なし
26日9時 CDT から
風向・風速北北西 4m/s
視程10km以上
全天の4割程度の雲 雲底高度 7,620m
KDFW 260905Z 2609/2712 27006KT P6SM SKC
FM261400 34008KT P6SM SCT250